Thunder radar more information blitzortung!


Radar de pluja more information rain snow radar


Visita la nostra xarxa de llocs de meteo:

Template documentation
and downloads

And another site



Extreme low temperature From: 13-12-2017 09:00 Until: 09:59 warning for: Extreme low temperature Level: Yellow info button

Pagina Historial Weather Underground text

Diari Resum Octubre 16, 2017 Unitats:  Mètric    Imperial   Tant
« Previous Dia
SegĂźent Dia »
Diari Setmana Mensual Anual Personalitzada
  Maxima: Minima: Media:
Temperatura: 25.1 °C 14.5 °C 18.9 °C
Punt de rosada: 17.0 °C 12.2 °C 14.3 °C
Humitat: 94 % 55 % 76 %
Wind Speed: 14.8 km/h 0.0 km/h 3.1 km/h
RĂ fegues de vent: 14.8 km/h - -
Vent:- - SSE
Pression baro: 1028.0 hPa 1023.9 hPa -
Precipitacions: 0.0 mm    
Historical Graphs
 
 
Dades de taula per Octubre 16, 2017
Temps Temperatura Punt de rosada Pression baro Vent Wind Speed RĂ fegues de vent Humitat Rainfall Rate (Hourly)
00:00 18.1 °C 15.0 °C 1027.0 hPa Calm     82 % 0.0 mm
00:05 18.0 °C 14.9 °C 1027.0 hPa Calm     82 % 0.0 mm
00:10 18.0 °C 14.9 °C 1027.0 hPa Calm     82 % 0.0 mm
00:15 17.9 °C 14.9 °C 1027.0 hPa Calm     83 % 0.0 mm
00:20 17.9 °C 14.9 °C 1027.0 hPa Calm     83 % 0.0 mm
00:25 17.8 °C 14.9 °C 1027.0 hPa Calm     83 % 0.0 mm
00:30 17.8 °C 14.9 °C 1027.0 hPa Calm     83 % 0.0 mm
00:35 17.8 °C 14.9 °C 1027.0 hPa Calm     83 % 0.0 mm
00:40 17.7 °C 14.8 °C 1027.0 hPa Calm     83 % 0.0 mm
00:45 17.7 °C 14.9 °C 1027.0 hPa Calm     84 % 0.0 mm
00:50 17.6 °C 14.9 °C 1027.0 hPa Calm     84 % 0.0 mm
00:55 17.6 °C 14.9 °C 1027.0 hPa ENE 3.7 km/h 3.7 km/h 84 % 0.0 mm
01:00 17.6 °C 14.9 °C 1027.0 hPa Calm     84 % 0.0 mm
01:05 17.5 °C 14.8 °C 1027.0 hPa SW 3.7 km/h 3.7 km/h 84 % 0.0 mm
01:10 17.4 °C 14.7 °C 1027.0 hPa SW 3.7 km/h 3.7 km/h 84 % 0.0 mm
01:15 17.3 °C 14.6 °C 1027.0 hPa SW 1.9 km/h 2.3 km/h 84 % 0.0 mm
01:20 17.3 °C 14.6 °C 1027.0 hPa Calm     84 % 0.0 mm
01:25 17.3 °C 14.8 °C 1027.0 hPa Calm     85 % 0.0 mm
01:30 17.3 °C 14.8 °C 1027.0 hPa Calm     85 % 0.0 mm
01:35 17.3 °C 14.8 °C 1027.0 hPa SW 3.7 km/h 3.7 km/h 85 % 0.0 mm
01:40 17.3 °C 14.8 °C 1027.0 hPa SW 1.9 km/h 1.9 km/h 85 % 0.0 mm
01:45 17.3 °C 14.9 °C 1027.0 hPa Calm     86 % 0.0 mm
01:50 17.3 °C 14.9 °C 1027.0 hPa Calm     86 % 0.0 mm
01:55 17.2 °C 14.8 °C 1027.0 hPa Calm     86 % 0.0 mm
02:00 17.2 °C 14.8 °C 1027.0 hPa Calm     86 % 0.0 mm
02:05 17.2 °C 14.8 °C 1027.0 hPa WNW 1.9 km/h 1.9 km/h 86 % 0.0 mm
02:10 17.1 °C 14.7 °C 1027.0 hPa NE 3.7 km/h 3.7 km/h 86 % 0.0 mm
02:15 17.1 °C 14.7 °C 1027.0 hPa NE 3.7 km/h 3.7 km/h 86 % 0.0 mm
02:20 17.0 °C 14.7 °C 1027.0 hPa NNE 1.9 km/h   86 % 0.0 mm
02:25 17.0 °C 14.7 °C 1027.0 hPa NE 3.7 km/h 3.7 km/h 86 % 0.0 mm
02:30 16.9 °C 14.7 °C 1026.0 hPa NNE 1.9 km/h 1.9 km/h 87 % 0.0 mm
02:35 16.8 °C 14.6 °C 1026.0 hPa Calm     87 % 0.0 mm
02:40 16.7 °C 14.3 °C 1026.0 hPa Calm     86 % 0.0 mm
02:45 16.6 °C 14.2 °C 1027.0 hPa WNW 3.7 km/h 3.7 km/h 86 % 0.0 mm
02:50 16.6 °C 14.4 °C 1027.0 hPa Calm     87 % 0.0 mm
02:55 16.5 °C 14.3 °C 1027.0 hPa Calm     87 % 0.0 mm
03:00 16.5 °C 14.3 °C 1026.0 hPa Calm     87 % 0.0 mm
03:05 16.4 °C 14.2 °C 1026.0 hPa Calm     87 % 0.0 mm
03:10 16.4 °C 14.2 °C 1026.0 hPa Calm     87 % 0.0 mm
03:15 16.3 °C 14.3 °C 1026.0 hPa Calm     88 % 0.0 mm
03:20 16.3 °C 14.3 °C 1026.0 hPa Calm     88 % 0.0 mm
03:25 16.3 °C 14.3 °C 1026.0 hPa Calm     88 % 0.0 mm
03:30 16.2 °C 14.2 °C 1026.0 hPa Calm     88 % 0.0 mm
03:35 16.2 °C 14.2 °C 1026.0 hPa Calm     88 % 0.0 mm
03:40 16.2 °C 14.2 °C 1026.0 hPa Calm     88 % 0.0 mm
03:45 16.1 °C 14.1 °C 1026.0 hPa Calm     88 % 0.0 mm
03:50 16.1 °C 14.1 °C 1026.0 hPa Calm     88 % 0.0 mm
03:55 16.0 °C 14.0 °C 1026.0 hPa Calm     88 % 0.0 mm
04:00 15.9 °C 13.9 °C 1026.0 hPa Calm     88 % 0.0 mm
04:05 15.9 °C 14.1 °C 1026.0 hPa Calm     89 % 0.0 mm
04:10 15.9 °C 14.1 °C 1026.0 hPa Calm     89 % 0.0 mm
04:15 15.8 °C 14.0 °C 1024.9 hPa Calm     89 % 0.0 mm
04:20 15.8 °C 14.0 °C 1024.9 hPa Calm     89 % 0.0 mm
04:25 15.8 °C 14.0 °C 1024.9 hPa Calm     89 % 0.0 mm
04:30 15.7 °C 13.9 °C 1026.0 hPa Calm     89 % 0.0 mm
04:35 15.7 °C 13.9 °C 1026.0 hPa Calm     89 % 0.0 mm
04:40 15.6 °C 13.8 °C 1026.0 hPa Calm     89 % 0.0 mm
04:45 15.4 °C 13.6 °C 1026.0 hPa West 3.2 km/h   89 % 0.0 mm
04:50 15.3 °C 13.3 °C 1026.0 hPa West 3.7 km/h 3.7 km/h 88 % 0.0 mm
04:55 15.4 °C 13.6 °C 1026.0 hPa West 1.9 km/h   89 % 0.0 mm
05:00 15.3 °C 13.5 °C 1024.9 hPa Calm     89 % 0.0 mm
05:05 15.3 °C 13.7 °C 1024.9 hPa Calm     90 % 0.0 mm
05:10 15.3 °C 13.7 °C 1024.9 hPa Calm     90 % 0.0 mm
05:15 15.3 °C 13.7 °C 1024.9 hPa Calm     90 % 0.0 mm
05:20 15.4 °C 13.8 °C 1024.9 hPa Calm     90 % 0.0 mm
05:25 15.5 °C 13.9 °C 1024.9 hPa West 2.3 km/h 2.3 km/h 90 % 0.0 mm
05:30 15.6 °C 13.9 °C 1026.0 hPa West 1.9 km/h   90 % 0.0 mm
05:35 15.5 °C 14.1 °C 1026.0 hPa Calm     91 % 0.0 mm
05:40 15.5 °C 14.1 °C 1026.0 hPa Calm     91 % 0.0 mm
05:45 15.6 °C 14.1 °C 1024.9 hPa Calm     91 % 0.0 mm
05:50 15.6 °C 14.1 °C 1024.9 hPa Calm     91 % 0.0 mm
05:55 15.6 °C 14.1 °C 1024.9 hPa Calm     91 % 0.0 mm
06:00 15.5 °C 14.1 °C 1024.9 hPa Calm     91 % 0.0 mm
06:05 15.4 °C 13.9 °C 1024.9 hPa Calm     91 % 0.0 mm
06:10 15.4 °C 13.9 °C 1024.9 hPa Calm     91 % 0.0 mm
06:15 15.4 °C 13.9 °C 1026.0 hPa NW 1.9 km/h   91 % 0.0 mm
06:20 15.4 °C 13.9 °C 1026.0 hPa Calm     91 % 0.0 mm
06:22 15.4 °C 13.9 °C 1026.0 hPa Calm     91 % 0.0 mm
06:27 15.2 °C 13.7 °C 1024.9 hPa Calm     91 % 0.0 mm
06:32 15.0 °C 13.6 °C 1024.9 hPa West 3.7 km/h 3.7 km/h 91 % 0.0 mm
06:37 14.8 °C 13.2 °C 1024.9 hPa Calm     90 % 0.0 mm
06:42 14.9 °C 13.3 °C 1026.0 hPa Calm     90 % 0.0 mm
06:47 14.9 °C 13.4 °C 1026.0 hPa Calm     91 % 0.0 mm
06:52 14.9 °C 13.4 °C 1026.0 hPa West 3.7 km/h 3.7 km/h 91 % 0.0 mm
06:57 14.9 °C 13.4 °C 1026.0 hPa West 1.9 km/h 1.9 km/h 91 % 0.0 mm
07:02 15.0 °C 13.6 °C 1026.0 hPa Calm     91 % 0.0 mm
07:07 15.0 °C 13.7 °C 1026.0 hPa Calm     92 % 0.0 mm
07:12 15.0 °C 13.7 °C 1026.0 hPa SW 1.9 km/h   92 % 0.0 mm
07:17 14.8 °C 13.5 °C 1026.0 hPa Calm     92 % 0.0 mm
07:22 14.7 °C 13.2 °C 1026.0 hPa Calm     91 % 0.0 mm
07:27 14.7 °C 13.2 °C 1026.0 hPa Calm     91 % 0.0 mm
07:32 14.6 °C 13.2 °C 1026.0 hPa Calm     91 % 0.0 mm
07:37 14.6 °C 13.2 °C 1026.0 hPa Calm     91 % 0.0 mm
07:42 14.6 °C 13.2 °C 1026.0 hPa Calm     91 % 0.0 mm
07:47 14.5 °C 13.1 °C 1026.0 hPa Calm     91 % 0.0 mm
07:52 14.5 °C 13.1 °C 1026.0 hPa Calm     91 % 0.0 mm
07:57 14.6 °C 13.2 °C 1026.0 hPa Calm     91 % 0.0 mm
08:02 14.7 °C 13.4 °C 1026.0 hPa Calm     92 % 0.0 mm
08:07 14.8 °C 13.5 °C 1026.0 hPa Calm     92 % 0.0 mm
08:12 14.8 °C 13.5 °C 1026.0 hPa Calm     92 % 0.0 mm
08:17 14.7 °C 13.4 °C 1026.0 hPa Calm     92 % 0.0 mm
08:22 14.7 °C 13.4 °C 1026.0 hPa Calm     92 % 0.0 mm
08:27 14.8 °C 13.7 °C 1027.0 hPa Calm     93 % 0.0 mm
08:32 14.9 °C 13.8 °C 1027.0 hPa Calm     93 % 0.0 mm
08:37 14.9 °C 13.8 °C 1027.0 hPa Calm     93 % 0.0 mm
08:42 15.0 °C 13.9 °C 1027.0 hPa Calm     93 % 0.0 mm
08:47 15.0 °C 13.9 °C 1027.0 hPa Calm     93 % 0.0 mm
08:52 15.2 °C 14.2 °C 1027.0 hPa Calm     94 % 0.0 mm
08:57 15.2 °C 14.1 °C 1027.0 hPa Calm     93 % 0.0 mm
09:02 15.3 °C 14.2 °C 1027.0 hPa Calm     93 % 0.0 mm
09:07 15.5 °C 14.4 °C 1027.0 hPa Calm     93 % 0.0 mm
09:12 15.8 °C 14.8 °C 1027.0 hPa Calm     94 % 0.0 mm
09:17 16.0 °C 15.1 °C 1027.0 hPa Calm     94 % 0.0 mm
09:22 16.0 °C 15.1 °C 1027.0 hPa SW 1.9 km/h   94 % 0.0 mm
09:27 15.8 °C 14.7 °C 1027.0 hPa SW 3.7 km/h 3.7 km/h 93 % 0.0 mm
09:32 15.9 °C 14.8 °C 1027.0 hPa Calm     93 % 0.0 mm
09:37 15.9 °C 14.6 °C 1027.0 hPa SSW 2.6 km/h   92 % 0.0 mm
09:42 16.1 °C 14.9 °C 1028.0 hPa SSE 1.9 km/h 1.9 km/h 93 % 0.0 mm
09:47 16.2 °C 14.9 °C 1028.0 hPa SW 1.9 km/h   92 % 0.0 mm
09:52 16.8 °C 15.7 °C 1028.0 hPa South 3.7 km/h 3.7 km/h 93 % 0.0 mm
09:57 17.1 °C 15.6 °C 1028.0 hPa SW 3.9 km/h   91 % 0.0 mm
10:02 17.0 °C 15.3 °C 1028.0 hPa SW 3.7 km/h   90 % 0.0 mm
10:07 17.8 °C 16.3 °C 1028.0 hPa Calm     91 % 0.0 mm
10:12 18.0 °C 16.2 °C 1028.0 hPa NNE 2.3 km/h   89 % 0.0 mm
10:17 18.2 °C 16.0 °C 1028.0 hPa ENE 3.9 km/h 3.9 km/h 87 % 0.0 mm
10:22 18.4 °C 16.0 °C 1028.0 hPa NNE 5.0 km/h 5.0 km/h 86 % 0.0 mm
10:27 18.9 °C 16.3 °C 1028.0 hPa Calm     85 % 0.0 mm
10:29 19.2 °C 16.6 °C 1028.0 hPa East 2.6 km/h 2.6 km/h 85 % 0.0 mm
10:34 19.7 °C 16.7 °C 1028.0 hPa NNE 1.9 km/h   83 % 0.0 mm
10:39 19.9 °C 16.7 °C 1028.0 hPa NNE 1.9 km/h   82 % 0.0 mm
10:44 20.2 °C 16.8 °C 1028.0 hPa ENE 3.7 km/h 3.7 km/h 81 % 0.0 mm
10:49 20.2 °C 16.6 °C 1028.0 hPa NNE 3.7 km/h 3.7 km/h 80 % 0.0 mm
10:54 19.9 °C 15.7 °C 1028.0 hPa NNE 5.6 km/h 5.6 km/h 77 % 0.0 mm
10:59 20.0 °C 16.1 °C 1028.0 hPa NE 3.7 km/h 3.7 km/h 78 % 0.0 mm
11:04 20.5 °C 16.3 °C 1028.0 hPa NNE 4.2 km/h 4.2 km/h 77 % 0.0 mm
11:09 20.8 °C 16.6 °C 1028.0 hPa NNE 7.4 km/h 7.4 km/h 77 % 0.0 mm
11:14 21.0 °C 16.4 °C 1028.0 hPa ENE 3.7 km/h 4.2 km/h 75 % 0.0 mm
11:19 21.2 °C 16.4 °C 1028.0 hPa ENE 4.2 km/h 4.2 km/h 74 % 0.0 mm
11:24 21.0 °C 16.0 °C 1028.0 hPa NNE 5.6 km/h 5.6 km/h 73 % 0.0 mm
11:29 21.4 °C 16.6 °C 1028.0 hPa NE 3.9 km/h 3.9 km/h 74 % 0.0 mm
11:34 21.7 °C 16.9 °C 1028.0 hPa SW 5.6 km/h 5.6 km/h 74 % 0.0 mm
11:39 22.0 °C 16.9 °C 1028.0 hPa NNE 7.4 km/h 7.4 km/h 73 % 0.0 mm
11:44 21.5 °C 16.2 °C 1028.0 hPa NE 7.4 km/h 7.4 km/h 72 % 0.0 mm
11:49 21.6 °C 16.3 °C 1028.0 hPa ENE 3.7 km/h 3.7 km/h 72 % 0.0 mm
11:54 22.5 °C 17.0 °C 1028.0 hPa SSE 3.7 km/h 3.7 km/h 71 % 0.0 mm
11:59 22.3 °C 16.6 °C 1028.0 hPa WNW 3.7 km/h 3.7 km/h 70 % 0.0 mm
12:04 21.9 °C 15.9 °C 1028.0 hPa ESE 9.3 km/h 9.3 km/h 69 % 0.0 mm
12:09 22.2 °C 16.2 °C 1028.0 hPa ENE 5.6 km/h 5.6 km/h 69 % 0.0 mm
12:14 22.6 °C 16.2 °C 1027.0 hPa SSE 5.6 km/h 5.6 km/h 67 % 0.0 mm
12:19 22.6 °C 16.2 °C 1027.0 hPa ESE 7.4 km/h 7.4 km/h 67 % 0.0 mm
12:24 22.9 °C 16.4 °C 1027.0 hPa South 5.6 km/h 5.6 km/h 67 % 0.0 mm
12:29 23.2 °C 16.0 °C 1028.0 hPa SSE 9.3 km/h 9.3 km/h 64 % 0.0 mm
12:34 22.8 °C 15.9 °C 1028.0 hPa NE 5.6 km/h 5.6 km/h 65 % 0.0 mm
12:39 23.2 °C 16.0 °C 1028.0 hPa ESE 3.7 km/h 3.7 km/h 64 % 0.0 mm
12:44 23.6 °C 16.2 °C 1027.0 hPa ESE 5.6 km/h 5.6 km/h 63 % 0.0 mm
12:49 23.0 °C 15.3 °C 1027.0 hPa ENE 7.4 km/h 7.4 km/h 62 % 0.0 mm
12:54 22.8 °C 15.6 °C 1027.0 hPa ENE 3.7 km/h 3.7 km/h 64 % 0.0 mm
12:59 23.5 °C 16.1 °C 1027.0 hPa SSE 5.6 km/h 5.6 km/h 63 % 0.0 mm
13:04 23.1 °C 15.7 °C 1027.0 hPa East 5.6 km/h 5.6 km/h 63 % 0.0 mm
13:09 22.8 °C 15.4 °C 1027.0 hPa ESE 5.6 km/h 5.6 km/h 63 % 0.0 mm
13:14 23.0 °C 15.6 °C 1027.0 hPa Calm     63 % 0.0 mm
13:19 23.1 °C 15.7 °C 1027.0 hPa ESE 4.7 km/h   63 % 0.0 mm
13:24 23.2 °C 15.5 °C 1027.0 hPa South 5.6 km/h 5.6 km/h 62 % 0.0 mm
13:29 22.8 °C 15.4 °C 1027.0 hPa South 5.6 km/h 5.6 km/h 63 % 0.0 mm
13:34 22.8 °C 15.6 °C 1027.0 hPa ENE 1.9 km/h 2.3 km/h 64 % 0.0 mm
13:39 22.8 °C 15.1 °C 1027.0 hPa SSE 3.7 km/h 3.7 km/h 62 % 0.0 mm
13:44 23.0 °C 15.3 °C 1027.0 hPa East 6.1 km/h 6.1 km/h 62 % 0.0 mm
13:49 22.9 °C 15.2 °C 1027.0 hPa ESE 5.6 km/h 5.6 km/h 62 % 0.0 mm
13:54 23.1 °C 15.4 °C 1027.0 hPa ESE 5.0 km/h 5.0 km/h 62 % 0.0 mm
13:59 24.0 °C 16.3 °C 1026.0 hPa WSW 7.4 km/h 7.4 km/h 62 % 0.0 mm
14:04 24.0 °C 15.5 °C 1026.0 hPa East 7.4 km/h 7.4 km/h 59 % 0.0 mm
14:09 23.7 °C 15.7 °C 1026.0 hPa East 4.7 km/h 4.7 km/h 61 % 0.0 mm
14:14 23.9 °C 15.7 °C 1026.0 hPa ESE 5.8 km/h 5.8 km/h 60 % 0.0 mm
14:19 24.1 °C 15.6 °C 1026.0 hPa SW 2.6 km/h   59 % 0.0 mm
14:24 24.1 °C 15.6 °C 1026.0 hPa SSW 7.4 km/h 7.4 km/h 59 % 0.0 mm
14:29 24.5 °C 15.4 °C 1026.0 hPa South 7.4 km/h 7.4 km/h 57 % 0.0 mm
14:34 24.7 °C 15.6 °C 1026.0 hPa West 5.0 km/h 5.0 km/h 57 % 0.0 mm
14:39 24.4 °C 15.3 °C 1026.0 hPa ESE 7.2 km/h 7.2 km/h 57 % 0.0 mm
14:44 24.3 °C 15.2 °C 1026.0 hPa ESE 7.9 km/h 7.9 km/h 57 % 0.0 mm
14:49 24.1 °C 14.8 °C 1026.0 hPa WSW 7.4 km/h 7.4 km/h 56 % 0.0 mm
14:54 24.0 °C 14.9 °C 1026.0 hPa SE 5.6 km/h 5.6 km/h 57 % 0.0 mm
14:59 24.3 °C 15.2 °C 1026.0 hPa South 5.6 km/h 5.6 km/h 57 % 0.0 mm
15:04 25.0 °C 15.9 °C 1026.0 hPa West 5.6 km/h 5.6 km/h 57 % 0.0 mm
15:09 25.1 °C 15.4 °C 1026.0 hPa SE 7.4 km/h 7.4 km/h 55 % 0.0 mm
15:14 25.0 °C 15.3 °C 1026.0 hPa SE 7.9 km/h 7.9 km/h 55 % 0.0 mm
15:19 24.6 °C 14.9 °C 1026.0 hPa ESE 11.4 km/h 11.4 km/h 55 % 0.0 mm
15:24 24.2 °C 14.9 °C 1026.0 hPa SE 10.8 km/h 10.8 km/h 56 % 0.0 mm
15:29 24.2 °C 14.9 °C 1024.9 hPa WSW 5.6 km/h 5.6 km/h 56 % 0.0 mm
15:34 24.3 °C 14.9 °C 1024.9 hPa SE 11.1 km/h 11.1 km/h 56 % 0.0 mm
15:39 24.1 °C 14.5 °C 1024.9 hPa SE 13.7 km/h 13.7 km/h 55 % 0.0 mm
15:44 23.9 °C 14.6 °C 1024.9 hPa East 11.1 km/h 11.1 km/h 56 % 0.0 mm
15:49 23.9 °C 14.6 °C 1024.9 hPa ESE 13.0 km/h 13.0 km/h 56 % 0.0 mm
15:54 23.8 °C 14.5 °C 1024.9 hPa East 14.8 km/h 14.8 km/h 56 % 0.0 mm
15:59 23.6 °C 14.3 °C 1024.9 hPa East 13.0 km/h 13.0 km/h 56 % 0.0 mm
16:04 23.5 °C 14.5 °C 1024.9 hPa SE 12.2 km/h 12.2 km/h 57 % 0.0 mm
16:09 23.3 °C 14.3 °C 1024.9 hPa East 7.4 km/h 7.4 km/h 57 % 0.0 mm
16:14 23.2 °C 14.2 °C 1023.9 hPa SE 14.8 km/h 14.8 km/h 57 % 0.0 mm
16:19 23.1 °C 14.1 °C 1023.9 hPa ESE 11.1 km/h 11.1 km/h 57 % 0.0 mm
16:24 23.0 °C 14.3 °C 1023.9 hPa ESE 9.3 km/h 9.3 km/h 58 % 0.0 mm
16:29 23.0 °C 14.3 °C 1024.9 hPa SE 9.3 km/h 9.3 km/h 58 % 0.0 mm
16:34 22.9 °C 14.2 °C 1024.9 hPa ESE 11.1 km/h 11.1 km/h 58 % 0.0 mm
16:39 22.7 °C 14.0 °C 1024.9 hPa East 13.0 km/h 13.0 km/h 58 % 0.0 mm
16:44 22.7 °C 14.3 °C 1023.9 hPa ENE 13.0 km/h 13.0 km/h 59 % 0.0 mm
16:49 22.7 °C 14.3 °C 1023.9 hPa SE 11.1 km/h 11.1 km/h 59 % 0.0 mm
16:54 22.7 °C 14.3 °C 1023.9 hPa ESE 11.4 km/h 11.4 km/h 59 % 0.0 mm
16:59 22.9 °C 14.4 °C 1023.9 hPa East 11.1 km/h 11.1 km/h 59 % 0.0 mm
17:04 23.0 °C 14.6 °C 1023.9 hPa ESE 11.1 km/h 11.1 km/h 59 % 0.0 mm
17:09 22.8 °C 14.4 °C 1023.9 hPa East 13.0 km/h 13.0 km/h 59 % 0.0 mm
17:14 22.8 °C 14.1 °C 1023.9 hPa SSE 14.8 km/h 14.8 km/h 58 % 0.0 mm
17:19 22.7 °C 14.0 °C 1023.9 hPa ESE 11.1 km/h 11.1 km/h 58 % 0.0 mm
17:24 22.8 °C 14.1 °C 1023.9 hPa SSE 13.0 km/h 13.0 km/h 58 % 0.0 mm
17:29 22.8 °C 14.1 °C 1023.9 hPa ENE 11.4 km/h 11.4 km/h 58 % 0.0 mm
17:34 22.7 °C 14.0 °C 1023.9 hPa SE 13.0 km/h 13.0 km/h 58 % 0.0 mm
17:39 22.6 °C 13.9 °C 1023.9 hPa SE 11.1 km/h 11.1 km/h 58 % 0.0 mm
17:44 22.5 °C 13.8 °C 1024.9 hPa ESE 11.9 km/h 11.9 km/h 58 % 0.0 mm
17:49 22.5 °C 13.8 °C 1024.9 hPa East 13.0 km/h 13.0 km/h 58 % 0.0 mm
17:54 22.5 °C 13.8 °C 1024.9 hPa ESE 9.3 km/h 9.3 km/h 58 % 0.0 mm
17:59 22.6 °C 13.9 °C 1023.9 hPa ESE 5.6 km/h 5.6 km/h 58 % 0.0 mm
18:04 22.8 °C 14.4 °C 1023.9 hPa West 6.1 km/h 6.1 km/h 59 % 0.0 mm
18:09 22.8 °C 14.1 °C 1023.9 hPa SSE 7.4 km/h 7.4 km/h 58 % 0.0 mm
18:14 22.6 °C 13.9 °C 1023.9 hPa South 5.6 km/h 5.6 km/h 58 % 0.0 mm
18:19 22.5 °C 13.8 °C 1023.9 hPa South 7.4 km/h 7.4 km/h 58 % 0.0 mm
18:24 22.4 °C 13.7 °C 1023.9 hPa East 3.9 km/h 3.9 km/h 58 % 0.0 mm
18:29 22.2 °C 13.6 °C 1023.9 hPa ESE 10.3 km/h 10.3 km/h 58 % 0.0 mm
18:34 22.1 °C 13.4 °C 1023.9 hPa SSE 7.4 km/h 7.4 km/h 58 % 0.0 mm
18:39 21.9 °C 13.5 °C 1023.9 hPa ESE 9.3 km/h 9.3 km/h 59 % 0.0 mm
18:44 21.7 °C 13.6 °C 1024.9 hPa ESE 3.7 km/h 3.7 km/h 60 % 0.0 mm
18:49 21.5 °C 13.4 °C 1024.9 hPa SSE 7.4 km/h 7.4 km/h 60 % 0.0 mm
18:54 21.4 °C 13.3 °C 1024.9 hPa ESE 7.6 km/h 7.6 km/h 60 % 0.0 mm
18:59 21.2 °C 13.4 °C 1024.9 hPa SE 6.1 km/h 6.1 km/h 61 % 0.0 mm
19:04 21.1 °C 13.3 °C 1024.9 hPa South 5.6 km/h   61 % 0.0 mm
19:09 21.0 °C 13.2 °C 1024.9 hPa Calm     61 % 0.0 mm
19:14 20.8 °C 13.3 °C 1024.9 hPa Calm     62 % 0.0 mm
19:19 20.7 °C 13.2 °C 1024.9 hPa SSE 3.7 km/h   62 % 0.0 mm
19:24 20.5 °C 13.2 °C 1024.9 hPa SSE 3.7 km/h 3.7 km/h 63 % 0.0 mm
19:29 20.4 °C 13.1 °C 1026.0 hPa Calm     63 % 0.0 mm
19:34 20.3 °C 13.0 °C 1026.0 hPa SW 1.9 km/h 1.9 km/h 63 % 0.0 mm
19:39 20.2 °C 13.2 °C 1026.0 hPa Calm     64 % 0.0 mm
19:44 20.0 °C 13.0 °C 1026.0 hPa Calm     64 % 0.0 mm
19:49 19.9 °C 13.1 °C 1026.0 hPa SW 1.9 km/h 1.9 km/h 65 % 0.0 mm
19:54 19.8 °C 13.1 °C 1026.0 hPa SW 1.9 km/h   65 % 0.0 mm
19:59 19.7 °C 13.2 °C 1026.0 hPa WSW 3.9 km/h 3.9 km/h 66 % 0.0 mm
20:04 19.5 °C 13.0 °C 1026.0 hPa WSW 2.6 km/h 2.6 km/h 66 % 0.0 mm
20:05 16.7 °C 12.7 °C 1026.0 hPa Calm     77 % 0.0 mm
20:09 19.4 °C 12.9 °C 1026.0 hPa Calm   1.4 km/h 66 % 0.0 mm
20:14 19.3 °C 12.8 °C 1026.0 hPa SW 1.9 km/h   66 % 0.0 mm
20:15 16.6 °C 12.7 °C 1024.9 hPa Calm     78 % 0.0 mm
20:19 19.3 °C 13.0 °C 1026.0 hPa Calm     67 % 0.0 mm
20:24 19.2 °C 12.9 °C 1026.0 hPa Calm     67 % 0.0 mm
20:25 16.4 °C 12.6 °C 1024.9 hPa Calm     78 % 0.0 mm
20:29 19.0 °C 12.7 °C 1024.9 hPa Calm     67 % 0.0 mm
20:34 19.0 °C 12.9 °C 1024.9 hPa Calm     68 % 0.0 mm
20:35 16.3 °C 12.7 °C 1026.0 hPa Calm     79 % 0.0 mm
20:39 18.9 °C 13.1 °C 1024.9 hPa Calm     69 % 0.0 mm
20:44 18.8 °C 13.0 °C 1026.0 hPa Calm     69 % 0.0 mm
20:45 16.2 °C 12.6 °C 1026.0 hPa Calm     79 % 0.0 mm
20:49 18.8 °C 13.0 °C 1026.0 hPa Calm     69 % 0.0 mm
20:54 18.8 °C 13.0 °C 1026.0 hPa Calm     69 % 0.0 mm
20:55 16.1 °C 12.4 °C 1026.0 hPa Calm     79 % 0.0 mm
20:59 18.8 °C 13.2 °C 1024.9 hPa Calm     70 % 0.0 mm
21:04 18.8 °C 13.2 °C 1024.9 hPa WSW 1.9 km/h   70 % 0.0 mm
21:05 16.0 °C 12.3 °C 1026.0 hPa Calm     79 % 0.0 mm
21:09 18.8 °C 13.2 °C 1024.9 hPa WSW 2.3 km/h   70 % 0.0 mm
21:14 18.9 °C 13.3 °C 1024.9 hPa Calm     70 % 0.0 mm
21:15 15.9 °C 12.4 °C 1024.9 hPa Calm     80 % 0.0 mm
21:19 18.8 °C 13.2 °C 1024.9 hPa Calm     70 % 0.0 mm
21:24 18.8 °C 13.2 °C 1024.9 hPa Calm     70 % 0.0 mm
21:25 15.7 °C 12.3 °C 1024.9 hPa Calm     80 % 0.0 mm
21:29 18.8 °C 13.2 °C 1026.0 hPa Calm     70 % 0.0 mm
21:34 18.8 °C 13.4 °C 1026.0 hPa Calm     71 % 0.0 mm
21:35 15.6 °C 12.2 °C 1024.9 hPa Calm   3.2 km/h 80 % 0.0 mm
21:39 18.8 °C 13.4 °C 1026.0 hPa WSW 1.9 km/h   71 % 0.0 mm
21:44 18.8 °C 13.4 °C 1024.9 hPa Calm     71 % 0.0 mm
21:45 15.6 °C 12.3 °C 1024.9 hPa Calm     81 % 0.0 mm
21:49 18.8 °C 13.4 °C 1024.9 hPa Calm     71 % 0.0 mm
21:54 18.8 °C 13.4 °C 1024.9 hPa Calm     71 % 0.0 mm
21:55 15.6 °C 12.2 °C 1024.9 hPa East 1.6 km/h 1.6 km/h 80 % 0.0 mm
21:59 18.8 °C 13.4 °C 1026.0 hPa Calm     71 % 0.0 mm
22:00 18.8 °C 13.4 °C 1026.0 hPa Calm     71 % 0.0 mm
22:05 18.8 °C 13.4 °C 1026.0 hPa Calm     71 % 0.0 mm
22:10 18.8 °C 13.4 °C 1026.0 hPa Calm     71 % 0.0 mm
22:15 18.8 °C 13.4 °C 1026.0 hPa Calm     71 % 0.0 mm
22:20 18.8 °C 13.4 °C 1026.0 hPa WSW 3.7 km/h 3.7 km/h 71 % 0.0 mm
22:25 18.9 °C 13.5 °C 1026.0 hPa Calm     71 % 0.0 mm
22:30 18.9 °C 13.5 °C 1026.0 hPa Calm     71 % 0.0 mm
22:35 18.8 °C 13.4 °C 1026.0 hPa Calm     71 % 0.0 mm
22:40 18.8 °C 13.4 °C 1026.0 hPa WSW 1.9 km/h 1.9 km/h 71 % 0.0 mm
22:45 18.7 °C 13.6 °C 1027.0 hPa WSW 1.9 km/h   72 % 0.0 mm
22:50 18.6 °C 13.4 °C 1027.0 hPa Calm   1.6 km/h 72 % 0.0 mm
22:55 18.5 °C 13.3 °C 1027.0 hPa Calm     72 % 0.0 mm
23:00 18.4 °C 13.3 °C 1026.0 hPa Calm     72 % 0.0 mm
23:05 18.3 °C 13.2 °C 1026.0 hPa Calm     72 % 0.0 mm
23:10 18.2 °C 13.1 °C 1026.0 hPa WSW 3.2 km/h   72 % 0.0 mm
23:15 17.9 °C 12.8 °C 1026.0 hPa WSW 3.2 km/h 3.2 km/h 72 % 0.0 mm
23:20 17.7 °C 12.8 °C 1026.0 hPa WSW 2.3 km/h 2.3 km/h 73 % 0.0 mm
23:25 17.6 °C 12.7 °C 1026.0 hPa WSW 1.6 km/h 3.2 km/h 73 % 0.0 mm
23:30 17.6 °C 12.7 °C 1026.0 hPa Calm   3.2 km/h 73 % 0.0 mm
23:35 17.6 °C 12.9 °C 1026.0 hPa Calm     74 % 0.0 mm
23:40 17.6 °C 12.9 °C 1026.0 hPa Calm     74 % 0.0 mm
23:45 17.5 °C 12.8 °C 1026.0 hPa Calm     74 % 0.0 mm
23:50 17.3 °C 12.6 °C 1026.0 hPa WSW 1.9 km/h 1.9 km/h 74 % 0.0 mm
23:55 17.3 °C 12.8 °C 1026.0 hPa Calm     75 % 0.0 mm
Meteo Sesrovires
Elogis d' Weather Underground - 4 mb

Guio original per  Jim McMurry - jmcmurry@mwt.net Adaptat per a la plantilla per  Wim van der Kuil - Leuven-Template.eu

Trobareu la nostra informacio del temps tambe a:

Weather Underground

AWEKAS